• Join FlightAware (Why Join?)
  • Login
  • US Flag 
10:07PM EDT


 

Airport Tracker/Info


-or-


 

Live Flight TrackerFlight Track Log ✈ AAL1811 ✈ 20-Jul-2013 ✈ KAUS - KDFW

Flight Track Log - Related Links

Times and Time Zones

All times are in EDT time to prevent confusion due to time zone crossing. See the AAL1811 flight status page for this flight to view local times or setup timezone preferences in your user account.

Time Position Orientation Groundspeed Altitude Reporting Facility
EDT Latitude Longitude Course Direction KTS MPH feet Rate Location/Type
03:37PM 30.3871 -97.5310 329° Northwest  Level FlightAware Approximate
03:37PM 30.1428 -97.7636 327° Northwest 240 276 5,800  Level Houston Center
03:38PM 30.4582 -97.5807 329° Northwest  Level FlightAware Approximate
03:38PM 30.2069 -97.7994 334° Northwest 252 290 8,600  Level Houston Center
03:39PM 30.5293 -97.6305 329° Northwest  Level FlightAware Approximate
03:39PM 30.2844 -97.8092 354° North 271 312 10,900  Level Houston Center
03:40PM 30.5959 -97.6881 323° Northwest  Level FlightAware Approximate
03:40PM 30.3692 -97.8419 342° North 312 359 12,700  Level Houston Center
03:41PM 30.6666 -97.7500 323° Northwest  Level FlightAware Approximate
03:41PM 30.4681 -97.8772 343° North 359 413 14,900  Level Houston Center
03:42PM 30.7419 -97.8027 327° Northwest  Level FlightAware Approximate
03:42PM 30.5722 -97.9147 343° North 381 438 17,400  Level Houston Center
03:43PM 30.6800 -97.9556 342° North 396 456 19,700 2,040 Climbing Houston Center
03:44PM 30.7908 -97.9964 342° North 409 471 21,700 1,560 Climbing Houston Center
03:45PM 30.9047 -98.0392 342° North 420 483 23,000 600 Climbing Houston Center
03:46PM 31.0200 -98.0817 342° North 426 490 23,000  Level Houston Center
03:47PM 31.1339 -98.1244 342° North 440 506 23,000  Level Fort Worth Center
03:48PM 31.2553 -98.0864 15° North 403 464 23,000  Level Fort Worth Center
03:49PM 31.3642 -98.0289 24° Northeast 411 473 23,000  Level Fort Worth Center
03:50PM 31.4731 -97.9808 21° North 421 484 23,000  Level Fort Worth Center
03:51PM 31.5839 -97.9281 22° Northeast 421 484 23,000  Level Fort Worth Center
03:52PM 31.6967 -97.8869 17° North 415 478 23,000  Level Fort Worth Center
03:53PM 31.8094 -97.8583 12° North 410 472 23,000 -960 Level Fort Worth Center
03:54PM 31.9225 -97.8197 16° North 415 478 21,100 -2,100 Descending Fort Worth Center
03:55PM 32.0228 -97.7883 15° North 415 478 18,800 -2,400 Descending Fort Worth Center
03:56PM 32.1336 -97.7397 20° North 391 450 16,400 -2,100 Descending Fort Worth Center
03:57PM 32.2233 -97.7131 14° North 369 425 14,700 -1,920 Descending Fort Worth Center
03:58PM 32.3278 -97.6986 North 347 399 12,600 -1,800 Descending Fort Worth Center
03:59PM 32.4053 -97.6544 26° Northeast 336 387 11,100 -840 Descending Fort Worth Center
04:00PM 32.4761 -97.5858 39° Northeast 313 360 11,000 -60 Descending Fort Worth Center
04:01PM 32.5389 -97.5392 32° Northeast 301 346 11,000  Level Fort Worth Center
04:02PM 32.6225 -97.4972 23° Northeast 291 335 11,000  Level Fort Worth Center
04:03PM 32.6872 -97.4553 29° Northeast 286 329 11,000  Level Fort Worth Center
04:04PM 32.7686 -97.4086 26° Northeast 286 329 11,000 -600 Level Fort Worth Center
04:05PM 32.8375 -97.3764 21° North 286 329 9,900 -1,440 Descending Fort Worth Center
04:06PM 32.9147 -97.3367 23° Northeast 286 329 8,200 -1,920 Descending Fort Worth Center
04:07PM 32.9731 -97.2922 33° Northeast 267 307 6,100 -1,200 Descending Fort Worth Center
04:08PM 33.0189 -97.2228 52° Northeast 248 285 5,900 -540 Descending Fort Worth Center
04:09PM 33.0356 -97.1558 73° East 232 267 5,100 -840 Descending Fort Worth Center